Time;durP1;ratioP1;P1;durP2;ratioP2;P2;SDS_P1;SDS_P2;PMS_P1;PMS_P2;Temp;Humidity;BMP_temperature;BMP_pressure;BME280_temperature;BME280_humidity;BME280_pressure;Samples;Min_cycle;Max_cycle;Signal;HPM_P1;HPM_P2
2022/03/21 00:00:43;;;;;;;8.93;6.40;;;;;;;;;;6129260;23;20037;-77
2022/03/21 00:03:13;;;;;;;12.43;10.95;;;;;;;;;;6108180;23;20014;-77
2022/03/21 00:05:41;;;;;;;7.07;6.28;;;;;;;;;;6127114;23;20030;-77
2022/03/21 00:08:11;;;;;;;8.57;6.00;;;;;;;;;;6107273;23;20014;-77
2022/03/21 00:10:40;;;;;;;10.18;7.60;;;;;;;;;;6133738;23;20329;-76
2022/03/21 00:13:09;;;;;;;11.20;7.75;;;;;;;;;;6092859;23;20019;-77
2022/03/21 00:15:37;;;;;;;13.82;6.10;;;;;;;;;;6093281;23;20018;-76
2022/03/21 00:18:05;;;;;;;7.20;6.00;;;;;;;;;;6096168;23;20026;-77
2022/03/21 00:20:34;;;;;;;12.98;7.53;;;;;;;;;;6102172;23;20026;-76
2022/03/21 00:23:02;;;;;;;9.30;6.10;;;;;;;;;;6104832;23;20021;-77
2022/03/21 00:25:30;;;;;;;8.15;7.53;;;;;;;;;;6097629;23;20019;-76
2022/03/21 00:27:58;;;;;;;10.80;7.72;;;;;;;;;;6104313;23;20037;-76
2022/03/21 00:30:27;;;;;;;11.05;6.78;;;;;;;;;;6094330;23;20026;-76
2022/03/21 00:32:55;;;;;;;6.63;5.18;;;;;;;;;;6100858;23;20023;-77
2022/03/21 00:35:24;;;;;;;7.70;6.80;;;;;;;;;;6105016;23;20026;-76
2022/03/21 00:37:52;;;;;;;11.82;7.53;;;;;;;;;;6096653;23;20037;-76
2022/03/21 00:40:20;;;;;;;11.32;6.68;;;;;;;;;;6102743;23;20602;-77
2022/03/21 00:42:50;;;;;;;8.73;7.60;;;;;;;;;;6069034;23;20029;-76
2022/03/21 00:45:28;;;;;;;8.25;6.22;;;;;;;;;;6073030;23;20026;-77
2022/03/21 00:47:56;;;;;;;11.85;8.02;;;;;;;;;;6102892;23;20327;-76
2022/03/21 00:50:25;;;;;;;11.02;7.45;;;;;;;;;;6045373;23;20030;-76
2022/03/21 00:52:54;;;;;;;8.48;6.43;;;;;;;;;;6075268;23;20033;-77
2022/03/21 00:55:28;;;;;;;9.02;6.00;;;;;;;;;;6103409;23;20014;-77
2022/03/21 00:57:57;;;;;;;9.75;7.57;;;;;;;;;;6095771;23;20031;-76
2022/03/21 01:00:26;;;;;;;9.05;5.47;;;;;;;;;;6076971;23;20022;-76
2022/03/21 01:02:55;;;;;;;7.70;6.75;;;;;;;;;;6104910;23;20027;-77
2022/03/21 01:05:24;;;;;;;9.15;7.43;;;;;;;;;;6092462;23;20027;-79
2022/03/21 01:07:52;;;;;;;8.98;6.90;;;;;;;;;;6103776;23;20446;-76
2022/03/21 01:10:21;;;;;;;9.68;7.10;;;;;;;;;;6091871;23;20031;-76
2022/03/21 01:12:49;;;;;;;7.40;6.60;;;;;;;;;;6112413;23;20032;-76
2022/03/21 01:15:18;;;;;;;11.80;6.85;;;;;;;;;;6133871;23;20014;-76
2022/03/21 01:17:47;;;;;;;11.77;7.82;;;;;;;;;;6125896;23;20018;-76
2022/03/21 01:20:16;;;;;;;8.13;7.22;;;;;;;;;;6106178;23;20010;-76
2022/03/21 01:22:45;;;;;;;8.55;6.45;;;;;;;;;;6133980;23;20014;-76
2022/03/21 01:25:13;;;;;;;7.90;6.70;;;;;;;;;;6128046;23;20026;-76
2022/03/21 01:27:41;;;;;;;14.85;8.68;;;;;;;;;;6133323;23;20035;-76
2022/03/21 01:30:10;;;;;;;7.78;5.88;;;;;;;;;;6124679;23;20032;-76
2022/03/21 01:32:42;;;;;;;11.32;7.57;;;;;;;;;;6097266;23;20034;-76
2022/03/21 01:35:11;;;;;;;9.40;7.13;;;;;;;;;;6134139;23;20014;-76
2022/03/21 01:37:57;;;;;;;8.02;6.00;;;;;;;;;;6100499;23;20674;-76
2022/03/21 01:41:24;;;;;;;9.50;8.52;;;;;;;;;;6071983;23;20036;-76
2022/03/21 01:44:44;;;;;;;15.73;6.43;;;;;;;;;;6094746;23;20022;-76
2022/03/21 01:48:04;;;;;;;14.55;7.25;;;;;;;;;;6132954;23;20022;-76
2022/03/21 01:51:31;;;;;;;7.13;6.13;;;;;;;;;;6094570;23;20494;-77
2022/03/21 01:58:25;;;;;;;6.68;4.93;;;;;;;;;;6072488;23;20038;-76
2022/03/21 02:01:44;;;;;;;9.88;7.63;;;;;;;;;;6126631;23;20056;-76
2022/03/21 02:04:47;;;;;;;7.20;6.50;;;;;;;;;;6094967;23;20786;-76
2022/03/21 02:08:14;;;;;;;7.43;6.68;;;;;;;;;;6095114;23;20026;-76
2022/03/21 02:11:35;;;;;;;8.93;6.90;;;;;;;;;;6114745;23;20053;-76
2022/03/21 02:15:00;;;;;;;12.02;8.52;;;;;;;;;;6026858;23;20075;-76
2022/03/21 02:18:26;;;;;;;8.13;6.85;;;;;;;;;;6083485;23;20029;-76
2022/03/21 02:22:00;;;;;;;10.48;8.77;;;;;;;;;;6126109;23;20041;-76
2022/03/21 02:24:56;;;;;;;14.52;8.38;;;;;;;;;;6104270;23;20077;-76
2022/03/21 02:27:27;;;;;;;8.23;6.25;;;;;;;;;;6096794;23;20025;-76
2022/03/21 02:29:56;;;;;;;9.35;6.72;;;;;;;;;;6125013;23;20496;-76
2022/03/21 02:32:25;;;;;;;8.40;7.45;;;;;;;;;;6131091;23;20033;-76
2022/03/21 02:34:55;;;;;;;9.05;6.57;;;;;;;;;;6133179;23;20010;-76
2022/03/21 02:37:24;;;;;;;10.88;9.55;;;;;;;;;;6100778;23;20037;-76
2022/03/21 02:39:53;;;;;;;10.63;7.97;;;;;;;;;;6132992;23;20021;-76
2022/03/21 02:42:21;;;;;;;6.97;6.38;;;;;;;;;;6122226;23;20041;-76
2022/03/21 02:44:49;;;;;;;10.43;8.18;;;;;;;;;;6129319;23;20032;-76
2022/03/21 02:47:17;;;;;;;9.23;7.43;;;;;;;;;;6133203;23;20018;-76
2022/03/21 02:49:46;;;;;;;9.85;5.93;;;;;;;;;;6099017;23;20037;-76
2022/03/21 02:52:15;;;;;;;13.15;7.10;;;;;;;;;;6131421;23;20025;-76
2022/03/21 02:54:43;;;;;;;9.85;8.63;;;;;;;;;;6106954;23;20033;-76
2022/03/21 02:57:13;;;;;;;22.88;10.73;;;;;;;;;;6126749;23;20022;-76
2022/03/21 02:59:41;;;;;;;10.95;8.57;;;;;;;;;;6132556;23;20014;-76
2022/03/21 03:02:09;;;;;;;13.32;9.02;;;;;;;;;;6097965;23;20022;-75
2022/03/21 03:04:38;;;;;;;10.13;7.25;;;;;;;;;;6114399;23;20461;-76
2022/03/21 03:07:06;;;;;;;9.88;6.93;;;;;;;;;;6107567;23;20014;-76
2022/03/21 03:09:34;;;;;;;10.35;7.70;;;;;;;;;;6126227;23;20338;-76
2022/03/21 03:12:02;;;;;;;7.88;6.80;;;;;;;;;;6130884;23;20476;-76
2022/03/21 03:14:30;;;;;;;10.15;6.50;;;;;;;;;;6132696;23;20525;-76
2022/03/21 03:16:58;;;;;;;6.30;5.72;;;;;;;;;;6128082;23;20361;-76
2022/03/21 03:19:26;;;;;;;11.05;6.60;;;;;;;;;;6132324;23;20018;-76
2022/03/21 03:21:54;;;;;;;8.35;6.57;;;;;;;;;;6124522;23;20029;-76
2022/03/21 03:24:24;;;;;;;11.48;6.65;;;;;;;;;;6130581;23;20025;-76
2022/03/21 03:26:52;;;;;;;13.05;7.55;;;;;;;;;;6106045;23;20018;-75
2022/03/21 03:29:20;;;;;;;12.45;7.25;;;;;;;;;;6126057;23;20022;-76
2022/03/21 03:31:49;;;;;;;10.25;5.93;;;;;;;;;;6132705;23;20345;-76
2022/03/21 03:34:17;;;;;;;10.02;6.40;;;;;;;;;;6097046;23;20022;-75
2022/03/21 03:36:45;;;;;;;8.85;6.60;;;;;;;;;;6102423;23;20037;-76
2022/03/21 03:39:13;;;;;;;9.35;7.65;;;;;;;;;;6132217;23;20013;-76
2022/03/21 03:41:42;;;;;;;9.85;8.27;;;;;;;;;;6098635;23;20323;-76
2022/03/21 03:44:10;;;;;;;10.85;7.57;;;;;;;;;;6131601;23;20025;-76
2022/03/21 03:46:38;;;;;;;8.60;6.15;;;;;;;;;;6106905;23;20021;-75
2022/03/21 03:49:06;;;;;;;10.05;6.25;;;;;;;;;;6127477;23;20044;-76
2022/03/21 03:51:37;;;;;;;10.07;6.53;;;;;;;;;;6132014;23;20021;-75
2022/03/21 03:54:05;;;;;;;10.05;8.05;;;;;;;;;;6097630;23;20030;-75
2022/03/21 03:56:33;;;;;;;7.55;6.38;;;;;;;;;;6125655;23;20022;-76
2022/03/21 03:59:01;;;;;;;13.35;11.10;;;;;;;;;;6131721;23;20025;-76
2022/03/21 04:01:29;;;;;;;11.80;8.27;;;;;;;;;;6126082;23;20029;-76
2022/03/21 04:03:59;;;;;;;8.68;7.35;;;;;;;;;;6132645;23;20018;-75
2022/03/21 04:06:27;;;;;;;10.00;8.88;;;;;;;;;;6121585;23;20026;-75
2022/03/21 04:08:55;;;;;;;8.38;7.22;;;;;;;;;;6127590;23;20365;-76
2022/03/21 04:11:23;;;;;;;9.57;8.27;;;;;;;;;;6131655;23;20345;-75
2022/03/21 04:13:53;;;;;;;10.30;9.18;;;;;;;;;;6123438;23;20030;-76
2022/03/21 04:16:21;;;;;;;7.53;6.82;;;;;;;;;;6130828;23;20018;-75
2022/03/21 04:18:49;;;;;;;12.63;6.70;;;;;;;;;;6132117;23;20025;-75
2022/03/21 04:21:27;;;;;;;10.15;6.22;;;;;;;;;;6125498;23;20034;-75
2022/03/21 04:23:57;;;;;;;7.53;6.78;;;;;;;;;;6128034;23;20295;-75
2022/03/21 04:26:26;;;;;;;10.93;7.32;;;;;;;;;;6121234;23;20033;-75
2022/03/21 04:28:55;;;;;;;7.20;6.57;;;;;;;;;;6128187;23;20033;-75
2022/03/21 04:31:24;;;;;;;25.15;8.15;;;;;;;;;;6096607;23;20018;-75
2022/03/21 04:33:52;;;;;;;10.32;8.18;;;;;;;;;;6124255;23;20030;-75
2022/03/21 04:36:20;;;;;;;9.70;7.65;;;;;;;;;;6130500;23;20446;-75
2022/03/21 04:38:48;;;;;;;10.02;6.50;;;;;;;;;;6132147;23;20453;-75
2022/03/21 04:41:17;;;;;;;12.15;8.90;;;;;;;;;;6126031;23;20033;-76
2022/03/21 04:43:45;;;;;;;8.65;7.57;;;;;;;;;;6132120;23;20067;-75
2022/03/21 04:46:13;;;;;;;11.40;8.02;;;;;;;;;;6096760;23;20033;-75
2022/03/21 04:48:41;;;;;;;9.60;7.35;;;;;;;;;;6129736;23;20033;-75
2022/03/21 04:51:10;;;;;;;9.43;8.05;;;;;;;;;;6133943;23;20014;-75
2022/03/21 04:53:38;;;;;;;10.20;7.45;;;;;;;;;;6101011;23;20037;-75
2022/03/21 04:56:06;;;;;;;6.72;5.85;;;;;;;;;;6132533;23;20018;-75
2022/03/21 04:58:34;;;;;;;12.68;7.55;;;;;;;;;;6133476;23;20459;-75
2022/03/21 05:01:02;;;;;;;11.05;6.72;;;;;;;;;;6129181;23;20026;-75
2022/03/21 05:03:32;;;;;;;11.43;7.20;;;;;;;;;;6108388;23;20063;-75
2022/03/21 05:06:00;;;;;;;15.80;6.47;;;;;;;;;;6099511;23;20026;-75
2022/03/21 05:08:28;;;;;;;9.80;6.32;;;;;;;;;;6097241;23;20026;-75
2022/03/21 05:10:56;;;;;;;10.07;6.22;;;;;;;;;;6132933;23;20021;-75
2022/03/21 05:13:25;;;;;;;7.70;6.20;;;;;;;;;;6126308;23;20029;-75
2022/03/21 05:15:53;;;;;;;11.10;8.43;;;;;;;;;;6133660;23;20711;-75
2022/03/21 05:18:22;;;;;;;12.75;6.95;;;;;;;;;;6097843;23;20040;-75
2022/03/21 05:20:50;;;;;;;8.82;6.10;;;;;;;;;;6129783;23;20376;-76
2022/03/21 05:31:38;;;;;;;18.35;7.32;;;;;;;;;;6133678;23;20025;-75
2022/03/21 05:36:54;;;;;;;10.32;6.88;;;;;;;;;;6103080;23;20036;-76
2022/03/21 05:39:23;;;;;;;9.60;6.55;;;;;;;;;;6133023;23;20013;-76
2022/03/21 05:41:52;;;;;;;8.25;7.47;;;;;;;;;;6125085;23;20030;-75
2022/03/21 05:44:20;;;;;;;8.98;5.97;;;;;;;;;;6131509;23;20013;-76
2022/03/21 05:46:49;;;;;;;13.40;7.88;;;;;;;;;;6108069;23;20014;-76
2022/03/21 05:49:17;;;;;;;6.88;6.28;;;;;;;;;;6127747;23;20036;-75
2022/03/21 05:51:45;;;;;;;14.32;8.52;;;;;;;;;;6133660;23;20010;-78
2022/03/21 05:54:14;;;;;;;7.63;6.80;;;;;;;;;;6096955;23;20030;-75
2022/03/21 05:56:43;;;;;;;10.68;7.47;;;;;;;;;;6129494;23;20469;-78
2022/03/21 06:01:58;;;;;;;8.82;6.38;;;;;;;;;;6096797;23;20354;-80
2022/03/21 06:04:27;;;;;;;15.13;8.15;;;;;;;;;;6105479;23;20030;-78
2022/03/21 06:06:55;;;;;;;8.68;7.78;;;;;;;;;;6073194;23;20509;-78
2022/03/21 06:09:23;;;;;;;10.02;6.30;;;;;;;;;;6126584;23;20373;-79
2022/03/21 06:11:52;;;;;;;8.00;7.22;;;;;;;;;;6133308;23;20018;-80
2022/03/21 06:14:20;;;;;;;11.30;7.05;;;;;;;;;;6067900;23;20022;-79
2022/03/21 06:16:49;;;;;;;12.88;8.93;;;;;;;;;;6067194;23;20546;-80
2022/03/21 06:19:18;;;;;;;20.20;7.70;;;;;;;;;;6102626;23;20018;-77
2022/03/21 06:21:47;;;;;;;8.60;6.25;;;;;;;;;;6094665;23;20065;-77
2022/03/21 06:24:16;;;;;;;12.50;6.32;;;;;;;;;;6101078;23;20018;-78
2022/03/21 06:26:45;;;;;;;11.30;8.82;;;;;;;;;;6053046;23;20065;-78
2022/03/21 06:29:14;;;;;;;14.48;10.40;;;;;;;;;;6097640;23;20026;-78
2022/03/21 06:31:44;;;;;;;9.77;5.88;;;;;;;;;;6077516;23;20018;-78
2022/03/21 06:34:13;;;;;;;14.80;7.95;;;;;;;;;;6094328;23;20029;-78
2022/03/21 06:36:41;;;;;;;9.57;7.40;;;;;;;;;;6067528;23;20029;-75
2022/03/21 06:39:10;;;;;;;13.50;8.27;;;;;;;;;;6077968;23;20026;-83
2022/03/21 06:41:38;;;;;;;11.77;9.30;;;;;;;;;;6066831;23;20034;-83
2022/03/21 06:44:07;;;;;;;10.45;8.10;;;;;;;;;;6053455;23;20458;-84
2022/03/21 06:46:35;;;;;;;10.20;7.18;;;;;;;;;;6044367;23;20018;-84
2022/03/21 06:49:04;;;;;;;11.48;7.13;;;;;;;;;;6043577;23;20027;-84
2022/03/21 06:51:32;;;;;;;9.20;8.30;;;;;;;;;;6102921;23;20022;-84
2022/03/21 06:54:00;;;;;;;10.18;9.18;;;;;;;;;;6094990;23;20466;-84
2022/03/21 06:56:28;;;;;;;10.88;7.55;;;;;;;;;;6051055;23;20018;-84
2022/03/21 06:58:56;;;;;;;10.85;8.50;;;;;;;;;;6102831;23;20015;-85
2022/03/21 07:01:25;;;;;;;12.13;7.10;;;;;;;;;;6043931;23;20026;-85
2022/03/21 07:03:53;;;;;;;9.57;7.35;;;;;;;;;;6053537;23;20034;-84
2022/03/21 07:06:21;;;;;;;9.20;6.30;;;;;;;;;;6091038;23;20026;-85
2022/03/21 07:08:51;;;;;;;6.68;5.45;;;;;;;;;;6098431;23;20026;-85
2022/03/21 07:11:21;;;;;;;10.88;8.10;;;;;;;;;;6020437;23;20509;-85
2022/03/21 07:13:49;;;;;;;13.05;7.30;;;;;;;;;;6065410;23;20026;-85
2022/03/21 07:16:20;;;;;;;9.68;6.53;;;;;;;;;;6127488;23;20018;-85
2022/03/21 07:18:53;;;;;;;10.65;8.32;;;;;;;;;;6095409;23;20014;-86
2022/03/21 07:21:22;;;;;;;10.82;7.70;;;;;;;;;;6046898;23;20022;-86
2022/03/21 07:23:50;;;;;;;8.95;6.78;;;;;;;;;;6127827;23;20018;-86
2022/03/21 07:26:18;;;;;;;9.00;5.80;;;;;;;;;;6066379;23;20037;-86
2022/03/21 07:28:47;;;;;;;7.78;6.95;;;;;;;;;;6066711;23;20796;-85
2022/03/21 07:31:33;;;;;;;8.95;6.43;;;;;;;;;;6068060;23;20021;-85
2022/03/21 07:34:01;;;;;;;9.82;7.72;;;;;;;;;;6070008;23;20033;-85
2022/03/21 07:36:34;;;;;;;10.23;6.95;;;;;;;;;;6125465;23;20731;-85
2022/03/21 07:39:03;;;;;;;11.00;7.55;;;;;;;;;;6068429;23;20466;-84
2022/03/21 07:41:32;;;;;;;9.55;8.07;;;;;;;;;;6090562;23;20034;-85
2022/03/21 07:44:05;;;;;;;11.25;8.75;;;;;;;;;;6067672;23;20030;-84
2022/03/21 07:49:20;;;;;;;9.63;7.22;;;;;;;;;;6091470;23;20026;-84
2022/03/21 07:51:49;;;;;;;11.30;7.35;;;;;;;;;;6127775;23;20029;-85
2022/03/21 07:54:17;;;;;;;10.98;7.60;;;;;;;;;;6043831;23;20033;-84
2022/03/21 07:56:45;;;;;;;9.18;7.35;;;;;;;;;;6097906;23;20484;-84
2022/03/21 07:59:13;;;;;;;10.07;6.93;;;;;;;;;;6067822;23;20022;-84
2022/03/21 08:01:45;;;;;;;11.70;9.82;;;;;;;;;;6067393;23;20026;-83
2022/03/21 08:04:14;;;;;;;9.30;6.53;;;;;;;;;;6067463;23;20449;-84
2022/03/21 08:06:43;;;;;;;10.57;8.07;;;;;;;;;;6056010;23;20037;-85
2022/03/21 08:09:11;;;;;;;8.98;7.88;;;;;;;;;;6071590;23;20057;-85
2022/03/21 08:11:40;;;;;;;8.20;7.38;;;;;;;;;;6092041;23;20029;-84
2022/03/21 08:14:11;;;;;;;12.05;8.23;;;;;;;;;;6090799;23;20033;-85
2022/03/21 08:16:39;;;;;;;10.73;8.70;;;;;;;;;;6091399;23;20030;-84
2022/03/21 08:19:08;;;;;;;12.75;7.65;;;;;;;;;;6101496;23;20763;-84
2022/03/21 08:21:36;;;;;;;8.18;6.70;;;;;;;;;;6120459;23;20378;-85
2022/03/21 08:24:06;;;;;;;10.55;7.82;;;;;;;;;;6102622;23;20014;-84
2022/03/21 08:26:35;;;;;;;11.52;9.15;;;;;;;;;;6093476;23;20021;-84
2022/03/21 08:29:03;;;;;;;10.52;7.65;;;;;;;;;;6091522;23;20026;-84
2022/03/21 08:31:32;;;;;;;11.27;9.95;;;;;;;;;;6044376;23;20329;-85
2022/03/21 08:34:00;;;;;;;8.95;7.85;;;;;;;;;;6044442;23;20029;-85
2022/03/21 08:36:28;;;;;;;16.05;9.85;;;;;;;;;;6044666;23;20025;-82
2022/03/21 08:38:57;;;;;;;10.13;9.10;;;;;;;;;;6103613;23;20014;-85
2022/03/21 08:41:26;;;;;;;12.65;7.82;;;;;;;;;;6068911;23;20033;-89
2022/03/21 08:44:02;;;;;;;15.88;9.70;;;;;;;;;;6070641;23;20021;-85
2022/03/21 08:46:33;;;;;;;10.57;7.32;;;;;;;;;;6093758;23;20037;-88
2022/03/21 08:51:58;;;;;;;12.10;7.35;;;;;;;;;;6104115;23;20025;-85
2022/03/21 08:54:28;;;;;;;9.60;6.32;;;;;;;;;;6093149;23;20026;-85
2022/03/21 08:56:57;;;;;;;9.65;8.30;;;;;;;;;;6099239;23;20030;-87
2022/03/21 08:59:28;;;;;;;13.32;9.40;;;;;;;;;;6094323;23;20013;-88
2022/03/21 09:01:56;;;;;;;11.38;8.25;;;;;;;;;;6121993;23;20061;-84
2022/03/21 09:04:25;;;;;;;7.78;6.97;;;;;;;;;;6127831;23;20026;-85
2022/03/21 09:06:54;;;;;;;10.35;8.65;;;;;;;;;;6093853;23;20022;-84
2022/03/21 09:09:22;;;;;;;10.50;7.40;;;;;;;;;;6123245;23;20029;-87
2022/03/21 09:11:55;;;;;;;11.65;8.13;;;;;;;;;;6080848;23;20018;-87
2022/03/21 09:14:23;;;;;;;7.43;6.72;;;;;;;;;;6097190;23;20029;-88
2022/03/21 09:16:52;;;;;;;13.07;8.98;;;;;;;;;;6095999;23;20026;-85
2022/03/21 09:19:22;;;;;;;12.55;9.43;;;;;;;;;;6096172;23;20026;-84
2022/03/21 09:21:57;;;;;;;13.38;10.10;;;;;;;;;;6046252;23;20449;-84
2022/03/21 09:24:26;;;;;;;10.77;7.72;;;;;;;;;;6128178;23;20032;-84
2022/03/21 09:26:54;;;;;;;10.95;9.07;;;;;;;;;;6104205;23;20021;-86
2022/03/21 09:29:31;;;;;;;11.63;7.70;;;;;;;;;;6045315;23;20029;-87
2022/03/21 09:32:02;;;;;;;8.85;7.82;;;;;;;;;;6093452;23;20030;-86
2022/03/21 09:34:39;;;;;;;9.88;8.63;;;;;;;;;;6118625;23;20461;-92
2022/03/21 09:37:42;;;;;;;13.38;9.15;;;;;;;;;;6099864;23;20022;-88
2022/03/21 09:40:17;;;;;;;10.85;8.90;;;;;;;;;;6102545;23;20041;-83
2022/03/21 09:42:44;;;;;;;;;;;;;;;;;;6129542;23;20021;-87
2022/03/21 09:45:13;;;;;;;14.70;9.05;;;;;;;;;;6068605;23;19928;-86
2022/03/21 09:50:35;;;;;;;14.90;8.05;;;;;;;;;;6091752;23;20022;-86
2022/03/21 09:53:05;;;;;;;8.60;7.80;;;;;;;;;;6074588;23;20033;-85
2022/03/21 09:55:33;;;;;;;9.23;7.72;;;;;;;;;;6128547;23;20014;-86
2022/03/21 09:58:03;;;;;;;13.23;8.02;;;;;;;;;;6119937;23;20033;-86
2022/03/21 10:00:32;;;;;;;16.42;10.05;;;;;;;;;;6068369;23;20025;-85
2022/03/21 10:03:00;;;;;;;17.30;8.32;;;;;;;;;;6078805;23;20037;-86
2022/03/21 10:05:32;;;;;;;11.32;8.70;;;;;;;;;;6072371;23;20030;-86
2022/03/21 10:08:10;;;;;;;9.05;8.25;;;;;;;;;;6128397;23;20017;-85
2022/03/21 10:10:38;;;;;;;11.38;8.02;;;;;;;;;;6077248;23;20030;-80
2022/03/21 10:13:12;;;;;;;9.15;6.88;;;;;;;;;;6046377;23;20029;-79
2022/03/21 10:15:41;;;;;;;16.70;10.75;;;;;;;;;;6128926;23;20029;-80
2022/03/21 10:18:09;;;;;;;13.45;9.02;;;;;;;;;;6091999;23;20445;-83
2022/03/21 10:20:38;;;;;;;15.45;9.65;;;;;;;;;;6068034;23;20033;-83
2022/03/21 10:23:17;;;;;;;13.85;8.60;;;;;;;;;;6129081;23;20022;-82
2022/03/21 10:25:52;;;;;;;12.00;7.97;;;;;;;;;;6120197;23;20033;-83
2022/03/21 10:28:34;;;;;;;11.40;7.60;;;;;;;;;;6126410;23;20341;-83
2022/03/21 10:31:03;;;;;;;12.95;8.07;;;;;;;;;;6068903;23;20021;-83
2022/03/21 10:33:31;;;;;;;10.52;7.60;;;;;;;;;;6121578;23;20477;-83
2022/03/21 10:36:04;;;;;;;8.57;7.20;;;;;;;;;;6127910;23;20824;-83
2022/03/21 10:38:33;;;;;;;9.18;6.22;;;;;;;;;;6066673;23;20061;-83
2022/03/21 10:41:33;;;;;;;10.60;8.38;;;;;;;;;;6094958;23;20033;-84
2022/03/21 10:44:03;;;;;;;10.50;7.78;;;;;;;;;;6128122;23;20017;-84
2022/03/21 10:46:32;;;;;;;13.67;8.67;;;;;;;;;;6116834;23;20476;-84
2022/03/21 10:49:10;;;;;;;12.73;10.00;;;;;;;;;;6121904;23;20311;-84
2022/03/21 10:51:50;;;;;;;10.75;8.50;;;;;;;;;;6128443;23;20349;-84
2022/03/21 10:54:37;;;;;;;11.48;9.18;;;;;;;;;;6118364;23;20029;-84
2022/03/21 10:57:06;;;;;;;10.40;9.43;;;;;;;;;;6066803;23;20041;-84
2022/03/21 10:59:34;;;;;;;10.95;8.68;;;;;;;;;;6067841;23;20554;-84
2022/03/21 11:02:13;;;;;;;11.40;9.00;;;;;;;;;;6066648;23;20037;-87
2022/03/21 11:04:43;;;;;;;13.20;10.73;;;;;;;;;;6124913;23;20033;-84
2022/03/21 11:07:14;;;;;;;10.88;9.40;;;;;;;;;;6100788;23;20018;-86
2022/03/21 11:09:47;;;;;;;18.80;10.60;;;;;;;;;;6119531;23;20041;-84
2022/03/21 11:12:16;;;;;;;12.57;9.77;;;;;;;;;;6099265;23;20014;-84
2022/03/21 11:14:44;;;;;;;13.30;9.15;;;;;;;;;;6101557;23;20014;-82
2022/03/21 11:17:15;;;;;;;11.55;8.85;;;;;;;;;;6117428;23;20445;-81
2022/03/21 11:19:43;;;;;;;12.65;8.55;;;;;;;;;;6127016;23;20014;-80
2022/03/21 11:22:12;;;;;;;11.25;9.52;;;;;;;;;;6115723;23;20022;-81
2022/03/21 11:24:40;;;;;;;23.45;10.52;;;;;;;;;;6074499;23;20040;-83
2022/03/21 11:27:14;;;;;;;10.55;7.28;;;;;;;;;;6125799;23;20018;-79
2022/03/21 11:29:58;;;;;;;12.38;8.70;;;;;;;;;;6119627;23;20033;-80
2022/03/21 11:32:35;;;;;;;12.05;8.45;;;;;;;;;;6125020;23;20018;-81
2022/03/21 11:35:17;;;;;;;11.88;8.35;;;;;;;;;;6127404;23;20014;-79
2022/03/21 11:37:47;;;;;;;13.27;8.73;;;;;;;;;;6118991;23;20034;-81
2022/03/21 11:40:35;;;;;;;10.02;9.02;;;;;;;;;;6125913;23;20029;-80
2022/03/21 11:43:18;;;;;;;8.82;7.93;;;;;;;;;;6127250;23;20014;-81
2022/03/21 11:45:47;;;;;;;14.60;7.22;;;;;;;;;;6120334;23;20029;-81
2022/03/21 11:48:18;;;;;;;10.75;9.48;;;;;;;;;;6100496;23;20018;-81
2022/03/21 11:50:47;;;;;;;8.55;7.07;;;;;;;;;;6102146;23;20018;-80
2022/03/21 11:53:17;;;;;;;10.70;8.07;;;;;;;;;;6121971;23;20030;-82
2022/03/21 11:55:45;;;;;;;12.73;7.88;;;;;;;;;;6126678;23;20014;-79
2022/03/21 11:58:39;;;;;;;8.32;6.10;;;;;;;;;;6117254;23;20441;-81
2022/03/21 12:01:15;;;;;;;13.25;6.35;;;;;;;;;;6124965;23;20030;-82
2022/03/21 12:03:44;;;;;;;10.55;7.70;;;;;;;;;;6130065;23;20021;-82
2022/03/21 12:06:31;;;;;;;9.98;7.32;;;;;;;;;;6092327;23;20025;-81
2022/03/21 12:09:05;;;;;;;16.38;10.27;;;;;;;;;;6125406;23;20353;-84
2022/03/21 12:11:40;;;;;;;10.52;8.05;;;;;;;;;;6129105;23;20025;-83
2022/03/21 12:14:20;;;;;;;10.82;8.23;;;;;;;;;;6119920;23;20462;-82
2022/03/21 12:17:01;;;;;;;11.73;8.80;;;;;;;;;;6096211;23;20026;-82
2022/03/21 12:19:48;;;;;;;10.00;7.80;;;;;;;;;;6129061;23;20018;-77
2022/03/21 12:22:34;;;;;;;10.35;7.22;;;;;;;;;;6119652;23;20022;-78
2022/03/21 12:25:06;;;;;;;14.02;8.25;;;;;;;;;;6099423;23;20026;-79
2022/03/21 12:27:37;;;;;;;11.90;9.27;;;;;;;;;;6103122;23;20081;-79
2022/03/21 12:30:27;;;;;;;13.77;7.65;;;;;;;;;;6120749;23;20026;-78
2022/03/21 12:33:05;;;;;;;8.15;5.45;;;;;;;;;;6126025;23;20030;-82
2022/03/21 12:35:42;;;;;;;9.60;6.55;;;;;;;;;;6079783;23;20091;-83
2022/03/21 12:38:17;;;;;;;15.98;6.78;;;;;;;;;;6068758;23;20041;-83
2022/03/21 12:40:55;;;;;;;10.38;8.90;;;;;;;;;;6098315;23;20665;-81
2022/03/21 12:43:25;;;;;;;10.45;6.75;;;;;;;;;;6091564;23;20397;-82
2022/03/21 12:46:06;;;;;;;10.00;7.90;;;;;;;;;;6095762;23;20079;-82
2022/03/21 12:48:40;;;;;;;11.57;8.80;;;;;;;;;;6126196;23;20026;-82
2022/03/21 12:51:09;;;;;;;9.77;6.85;;;;;;;;;;6103809;23;20026;-82
2022/03/21 12:53:48;;;;;;;8.05;6.07;;;;;;;;;;6123346;23;20041;-81
2022/03/21 12:56:18;;;;;;;9.10;6.90;;;;;;;;;;6127308;23;20021;-81
2022/03/21 12:58:48;;;;;;;14.68;8.50;;;;;;;;;;6069791;23;20017;-82
2022/03/21 13:01:18;;;;;;;9.50;7.57;;;;;;;;;;6093510;23;20492;-81
2022/03/21 13:03:49;;;;;;;10.90;7.45;;;;;;;;;;6129504;23;20014;-78
2022/03/21 13:11:32;;;;;;;11.82;6.75;;;;;;;;;;6070075;23;20025;-83
2022/03/21 13:14:02;;;;;;;12.40;8.13;;;;;;;;;;6120062;23;20083;-83
2022/03/21 13:16:38;;;;;;;8.45;6.72;;;;;;;;;;6102023;23;20030;-81
2022/03/21 13:19:07;;;;;;;13.65;8.88;;;;;;;;;;6069079;23;20018;-82
2022/03/21 13:21:40;;;;;;;9.00;6.97;;;;;;;;;;6092392;23;20022;-82
2022/03/21 13:24:13;;;;;;;9.73;8.20;;;;;;;;;;6102168;23;20021;-81
2022/03/21 13:26:44;;;;;;;9.23;6.07;;;;;;;;;;6128914;23;20022;-83
2022/03/21 13:29:31;;;;;;;7.53;5.90;;;;;;;;;;6092446;23;20022;-81
2022/03/21 13:32:00;;;;;;;10.73;8.65;;;;;;;;;;6129258;23;20021;-84
2022/03/21 13:34:28;;;;;;;11.98;7.05;;;;;;;;;;6068419;23;20633;-82
2022/03/21 13:36:56;;;;;;;7.35;6.35;;;;;;;;;;6098778;23;20026;-82
2022/03/21 13:39:33;;;;;;;10.57;7.47;;;;;;;;;;6129182;23;20014;-81
2022/03/21 13:42:24;;;;;;;17.63;8.82;;;;;;;;;;6067763;23;20029;-81
2022/03/21 13:44:54;;;;;;;13.85;8.82;;;;;;;;;;6100172;23;20033;-81
2022/03/21 13:47:23;;;;;;;10.73;8.02;;;;;;;;;;6129534;23;20018;-80
2022/03/21 13:49:53;;;;;;;9.50;8.55;;;;;;;;;;6092966;23;20033;-81
2022/03/21 13:52:22;;;;;;;;;;;;;;;;;;6101710;23;20022;-80
2022/03/21 13:54:57;;;;;;;8.13;6.75;;;;;;;;;;6129444;23;19924;-81
2022/03/21 13:57:27;;;;;;;8.82;8.00;;;;;;;;;;6071791;23;20033;-80
2022/03/21 14:00:03;;;;;;;10.20;7.95;;;;;;;;;;6093157;23;20064;-80
2022/03/21 14:02:41;;;;;;;9.18;6.57;;;;;;;;;;6043866;23;20096;-80
2022/03/21 14:05:33;;;;;;;11.73;5.75;;;;;;;;;;6097240;23;20387;-80
2022/03/21 14:08:03;;;;;;;;;;;;;;;;;;6101924;23;20017;-80
2022/03/21 14:10:37;;;;;;;12.27;8.05;;;;;;;;;;6092046;23;19932;-81
2022/03/21 14:13:15;;;;;;;12.98;8.23;;;;;;;;;;6097757;23;20018;-80
2022/03/21 14:15:47;;;;;;;9.48;6.55;;;;;;;;;;6129166;23;20018;-81
2022/03/21 14:18:23;;;;;;;8.82;7.55;;;;;;;;;;6119717;23;20026;-76
2022/03/21 14:20:52;;;;;;;35.10;9.80;;;;;;;;;;6124141;23;20044;-76
2022/03/21 14:23:25;;;;;;;7.43;5.78;;;;;;;;;;6128266;23;20021;-76
2022/03/21 14:28:42;;;;;;;13.98;9.55;;;;;;;;;;6124037;23;20030;-75
2022/03/21 14:31:11;;;;;;;11.45;9.27;;;;;;;;;;6091834;23;20029;-75
2022/03/21 14:33:39;;;;;;;11.63;8.73;;;;;;;;;;6121130;23;20540;-73
2022/03/21 14:36:08;;;;;;;9.82;6.35;;;;;;;;;;6100896;23;20018;-75
2022/03/21 14:38:36;;;;;;;10.38;8.30;;;;;;;;;;6127697;23;20014;-76
2022/03/21 14:41:09;;;;;;;7.63;6.10;;;;;;;;;;6097052;23;20450;-75
2022/03/21 14:43:37;;;;;;;12.90;7.88;;;;;;;;;;6128340;23;20014;-75
2022/03/21 14:46:05;;;;;;;13.32;8.20;;;;;;;;;;6119468;23;20030;-75
2022/03/21 14:48:34;;;;;;;11.93;8.55;;;;;;;;;;6124973;23;20025;-75
2022/03/21 14:51:05;;;;;;;15.55;8.85;;;;;;;;;;6127834;23;20026;-75
2022/03/21 14:53:34;;;;;;;9.45;8.48;;;;;;;;;;6095218;23;20033;-75
2022/03/21 14:56:03;;;;;;;11.52;9.63;;;;;;;;;;6127382;23;20029;-76
2022/03/21 14:58:33;;;;;;;15.00;10.15;;;;;;;;;;6116278;23;20456;-75
2022/03/21 15:01:06;;;;;;;12.98;7.50;;;;;;;;;;6123189;23;20025;-75
2022/03/21 15:03:36;;;;;;;17.63;11.00;;;;;;;;;;6128086;23;20025;-75
2022/03/21 15:06:04;;;;;;;16.58;8.45;;;;;;;;;;6118744;23;20484;-75
2022/03/21 15:08:33;;;;;;;10.35;9.07;;;;;;;;;;6125053;23;20804;-75
2022/03/21 15:11:02;;;;;;;16.50;11.75;;;;;;;;;;6127631;23;20018;-76
2022/03/21 15:13:30;;;;;;;17.15;11.05;;;;;;;;;;6119576;23;20025;-75
2022/03/21 15:15:58;;;;;;;16.58;10.90;;;;;;;;;;6126727;23;20025;-76
2022/03/21 15:18:27;;;;;;;13.48;10.05;;;;;;;;;;6090186;23;20022;-75
2022/03/21 15:20:56;;;;;;;12.57;9.68;;;;;;;;;;6123513;23;20032;-76
2022/03/21 15:23:24;;;;;;;15.10;11.52;;;;;;;;;;6079108;23;20018;-77
2022/03/21 15:25:53;;;;;;;11.95;8.18;;;;;;;;;;6119761;23;20029;-76
2022/03/21 15:28:21;;;;;;;16.65;9.68;;;;;;;;;;6125755;23;20018;-76
2022/03/21 15:30:49;;;;;;;10.45;8.18;;;;;;;;;;6128213;23;20014;-76
2022/03/21 15:33:18;;;;;;;30.27;13.07;;;;;;;;;;6096796;23;20026;-76
2022/03/21 15:35:46;;;;;;;11.82;8.75;;;;;;;;;;6091334;23;20688;-76
2022/03/21 15:43:54;;;;;;;14.25;9.40;;;;;;;;;;6067000;23;20037;-76
2022/03/21 15:46:28;;;;;;;18.83;12.90;;;;;;;;;;6117123;23;20541;-75